sensor_id;sensor_type;location;lat;lon;timestamp;temperature;humidity
6666;DHT22;3369;49.906;8.598;2023-09-19T00:01:08;16.80;99.90
6666;DHT22;3369;49.906;8.598;2023-09-19T00:03:36;16.80;99.90
6666;DHT22;3369;49.906;8.598;2023-09-19T00:06:20;16.80;99.90
6666;DHT22;3369;49.906;8.598;2023-09-19T00:08:46;16.80;99.90
6666;DHT22;3369;49.906;8.598;2023-09-19T00:11:13;16.80;99.90
6666;DHT22;3369;49.906;8.598;2023-09-19T00:13:40;16.80;99.90
6666;DHT22;3369;49.906;8.598;2023-09-19T00:16:10;16.80;99.90
6666;DHT22;3369;49.906;8.598;2023-09-19T00:18:38;16.80;99.90
6666;DHT22;3369;49.906;8.598;2023-09-19T00:21:04;16.80;99.90
6666;DHT22;3369;49.906;8.598;2023-09-19T00:23:33;16.80;99.90
6666;DHT22;3369;49.906;8.598;2023-09-19T00:26:00;16.80;99.90
6666;DHT22;3369;49.906;8.598;2023-09-19T00:28:26;16.80;99.90
6666;DHT22;3369;49.906;8.598;2023-09-19T00:30:52;16.80;99.90
6666;DHT22;3369;49.906;8.598;2023-09-19T00:33:38;16.90;99.90
6666;DHT22;3369;49.906;8.598;2023-09-19T00:36:05;16.90;99.90
6666;DHT22;3369;49.906;8.598;2023-09-19T00:38:31;16.90;99.90
6666;DHT22;3369;49.906;8.598;2023-09-19T00:41:03;16.90;99.90
6666;DHT22;3369;49.906;8.598;2023-09-19T00:43:30;16.90;99.90
6666;DHT22;3369;49.906;8.598;2023-09-19T00:45:59;16.90;99.90
6666;DHT22;3369;49.906;8.598;2023-09-19T00:48:26;17.00;99.90
6666;DHT22;3369;49.906;8.598;2023-09-19T00:50:55;17.00;99.90
6666;DHT22;3369;49.906;8.598;2023-09-19T00:53:24;17.00;99.90
6666;DHT22;3369;49.906;8.598;2023-09-19T00:55:55;17.00;99.90
6666;DHT22;3369;49.906;8.598;2023-09-19T00:58:21;17.00;99.90
6666;DHT22;3369;49.906;8.598;2023-09-19T01:00:50;17.00;99.90
6666;DHT22;3369;49.906;8.598;2023-09-19T01:03:17;17.00;99.90
6666;DHT22;3369;49.906;8.598;2023-09-19T01:05:43;17.00;99.90
6666;DHT22;3369;49.906;8.598;2023-09-19T01:08:09;17.00;99.90
6666;DHT22;3369;49.906;8.598;2023-09-19T01:10:51;17.00;99.90
6666;DHT22;3369;49.906;8.598;2023-09-19T01:18:57;17.00;99.90
6666;DHT22;3369;49.906;8.598;2023-09-19T01:22:42;17.00;99.90
6666;DHT22;3369;49.906;8.598;2023-09-19T01:25:03;16.90;99.90
6666;DHT22;3369;49.906;8.598;2023-09-19T01:28:13;17.00;99.90
6666;DHT22;3369;49.906;8.598;2023-09-19T01:30:43;17.00;99.90
6666;DHT22;3369;49.906;8.598;2023-09-19T01:33:09;17.00;99.90
6666;DHT22;3369;49.906;8.598;2023-09-19T01:35:38;17.00;99.90
6666;DHT22;3369;49.906;8.598;2023-09-19T01:38:12;16.90;99.90
6666;DHT22;3369;49.906;8.598;2023-09-19T01:40:44;17.00;99.90
6666;DHT22;3369;49.906;8.598;2023-09-19T01:43:33;17.00;99.90
6666;DHT22;3369;49.906;8.598;2023-09-19T01:46:01;17.00;99.90
6666;DHT22;3369;49.906;8.598;2023-09-19T01:51:51;17.00;99.90
6666;DHT22;3369;49.906;8.598;2023-09-19T01:54:26;17.00;99.90
6666;DHT22;3369;49.906;8.598;2023-09-19T01:57:02;17.00;99.90
6666;DHT22;3369;49.906;8.598;2023-09-19T01:59:37;17.00;99.90
6666;DHT22;3369;49.906;8.598;2023-09-19T02:02:06;17.10;99.90
6666;DHT22;3369;49.906;8.598;2023-09-19T02:04:34;17.00;99.90
6666;DHT22;3369;49.906;8.598;2023-09-19T02:07:01;17.00;99.90
6666;DHT22;3369;49.906;8.598;2023-09-19T02:09:29;17.00;99.90
6666;DHT22;3369;49.906;8.598;2023-09-19T02:11:57;17.00;99.90
6666;DHT22;3369;49.906;8.598;2023-09-19T02:14:24;17.00;99.90
6666;DHT22;3369;49.906;8.598;2023-09-19T02:16:51;17.00;99.90
6666;DHT22;3369;49.906;8.598;2023-09-19T02:19:17;16.90;99.90
6666;DHT22;3369;49.906;8.598;2023-09-19T02:21:44;16.90;99.90
6666;DHT22;3369;49.906;8.598;2023-09-19T02:24:10;16.90;99.90
6666;DHT22;3369;49.906;8.598;2023-09-19T02:26:35;16.90;99.90
6666;DHT22;3369;49.906;8.598;2023-09-19T02:29:02;16.90;99.90
6666;DHT22;3369;49.906;8.598;2023-09-19T02:31:30;16.90;99.90
6666;DHT22;3369;49.906;8.598;2023-09-19T02:33:57;16.90;99.90
6666;DHT22;3369;49.906;8.598;2023-09-19T02:36:23;16.80;99.90
6666;DHT22;3369;49.906;8.598;2023-09-19T02:38:50;16.80;99.90
6666;DHT22;3369;49.906;8.598;2023-09-19T02:41:16;16.80;99.90
6666;DHT22;3369;49.906;8.598;2023-09-19T02:43:44;16.80;99.90
6666;DHT22;3369;49.906;8.598;2023-09-19T02:46:09;16.70;99.90
6666;DHT22;3369;49.906;8.598;2023-09-19T02:48:39;16.70;99.90
6666;DHT22;3369;49.906;8.598;2023-09-19T02:51:06;16.70;99.90
6666;DHT22;3369;49.906;8.598;2023-09-19T02:53:31;16.60;99.90
6666;DHT22;3369;49.906;8.598;2023-09-19T02:55:59;16.60;99.90
6666;DHT22;3369;49.906;8.598;2023-09-19T02:58:26;16.50;99.90
6666;DHT22;3369;49.906;8.598;2023-09-19T03:01:07;16.50;99.90
6666;DHT22;3369;49.906;8.598;2023-09-19T03:03:35;16.50;99.90
6666;DHT22;3369;49.906;8.598;2023-09-19T03:06:02;16.50;99.90
6666;DHT22;3369;49.906;8.598;2023-09-19T03:08:30;16.40;99.90
6666;DHT22;3369;49.906;8.598;2023-09-19T03:10:57;16.40;99.90
6666;DHT22;3369;49.906;8.598;2023-09-19T03:13:26;16.40;99.90
6666;DHT22;3369;49.906;8.598;2023-09-19T03:15:56;16.40;99.90
6666;DHT22;3369;49.906;8.598;2023-09-19T03:18:25;16.40;99.90
6666;DHT22;3369;49.906;8.598;2023-09-19T03:20:58;16.40;99.90
6666;DHT22;3369;49.906;8.598;2023-09-19T03:23:30;16.40;99.90
6666;DHT22;3369;49.906;8.598;2023-09-19T03:25:56;16.40;99.90
6666;DHT22;3369;49.906;8.598;2023-09-19T03:28:22;16.40;99.90
6666;DHT22;3369;49.906;8.598;2023-09-19T03:31:10;16.30;99.90
6666;DHT22;3369;49.906;8.598;2023-09-19T03:33:46;16.30;99.90
6666;DHT22;3369;49.906;8.598;2023-09-19T03:36:12;16.30;99.90
6666;DHT22;3369;49.906;8.598;2023-09-19T03:38:38;16.30;99.90
6666;DHT22;3369;49.906;8.598;2023-09-19T03:41:04;16.30;99.90
6666;DHT22;3369;49.906;8.598;2023-09-19T03:43:32;16.20;99.90
6666;DHT22;3369;49.906;8.598;2023-09-19T03:46:02;16.20;99.90
6666;DHT22;3369;49.906;8.598;2023-09-19T03:48:30;16.20;99.90
6666;DHT22;3369;49.906;8.598;2023-09-19T03:50:57;16.20;99.90
6666;DHT22;3369;49.906;8.598;2023-09-19T03:53:23;16.30;99.90
6666;DHT22;3369;49.906;8.598;2023-09-19T03:55:50;16.30;99.90
6666;DHT22;3369;49.906;8.598;2023-09-19T03:58:16;16.30;99.90
6666;DHT22;3369;49.906;8.598;2023-09-19T04:00:41;16.30;99.90
6666;DHT22;3369;49.906;8.598;2023-09-19T04:03:07;16.30;99.90
6666;DHT22;3369;49.906;8.598;2023-09-19T04:05:33;16.30;99.90
6666;DHT22;3369;49.906;8.598;2023-09-19T04:07:59;16.20;99.90
6666;DHT22;3369;49.906;8.598;2023-09-19T04:10:25;16.20;99.90
6666;DHT22;3369;49.906;8.598;2023-09-19T04:12:55;16.10;99.90
6666;DHT22;3369;49.906;8.598;2023-09-19T04:15:23;16.10;99.90
6666;DHT22;3369;49.906;8.598;2023-09-19T04:17:52;16.00;99.90
6666;DHT22;3369;49.906;8.598;2023-09-19T04:20:18;16.00;99.90
6666;DHT22;3369;49.906;8.598;2023-09-19T04:22:51;15.90;99.90
6666;DHT22;3369;49.906;8.598;2023-09-19T04:25:17;15.90;99.90
6666;DHT22;3369;49.906;8.598;2023-09-19T04:27:56;15.90;99.90
6666;DHT22;3369;49.906;8.598;2023-09-19T04:30:21;15.90;99.90
6666;DHT22;3369;49.906;8.598;2023-09-19T04:32:47;15.90;99.90
6666;DHT22;3369;49.906;8.598;2023-09-19T04:35:17;15.90;99.90
6666;DHT22;3369;49.906;8.598;2023-09-19T04:37:43;15.90;99.90
6666;DHT22;3369;49.906;8.598;2023-09-19T04:40:10;15.90;99.90
6666;DHT22;3369;49.906;8.598;2023-09-19T04:42:40;15.90;99.90
6666;DHT22;3369;49.906;8.598;2023-09-19T04:45:06;15.90;99.90
6666;DHT22;3369;49.906;8.598;2023-09-19T04:47:32;16.00;99.90
6666;DHT22;3369;49.906;8.598;2023-09-19T04:49:58;15.90;99.90
6666;DHT22;3369;49.906;8.598;2023-09-19T04:52:24;15.90;99.90
6666;DHT22;3369;49.906;8.598;2023-09-19T04:54:51;15.90;99.90
6666;DHT22;3369;49.906;8.598;2023-09-19T04:57:16;15.90;99.90
6666;DHT22;3369;49.906;8.598;2023-09-19T04:59:42;15.80;99.90
6666;DHT22;3369;49.906;8.598;2023-09-19T05:02:07;15.80;99.90
6666;DHT22;3369;49.906;8.598;2023-09-19T05:04:37;15.80;99.90
6666;DHT22;3369;49.906;8.598;2023-09-19T05:07:04;15.90;99.90
6666;DHT22;3369;49.906;8.598;2023-09-19T05:09:29;15.90;99.90
6666;DHT22;3369;49.906;8.598;2023-09-19T05:11:56;15.90;99.90
6666;DHT22;3369;49.906;8.598;2023-09-19T05:14:22;15.90;99.90
6666;DHT22;3369;49.906;8.598;2023-09-19T05:16:54;16.00;99.90
6666;DHT22;3369;49.906;8.598;2023-09-19T05:19:20;16.00;99.90
6666;DHT22;3369;49.906;8.598;2023-09-19T05:21:45;16.00;99.90
6666;DHT22;3369;49.906;8.598;2023-09-19T05:24:12;15.90;99.90
6666;DHT22;3369;49.906;8.598;2023-09-19T05:26:40;16.00;99.90
6666;DHT22;3369;49.906;8.598;2023-09-19T05:29:06;16.00;99.90
6666;DHT22;3369;49.906;8.598;2023-09-19T05:31:33;15.90;99.90
6666;DHT22;3369;49.906;8.598;2023-09-19T05:34:01;16.00;99.90
6666;DHT22;3369;49.906;8.598;2023-09-19T05:36:27;15.90;99.90
6666;DHT22;3369;49.906;8.598;2023-09-19T05:38:55;15.90;99.90
6666;DHT22;3369;49.906;8.598;2023-09-19T05:41:20;15.90;99.90
6666;DHT22;3369;49.906;8.598;2023-09-19T05:43:49;15.90;99.90
6666;DHT22;3369;49.906;8.598;2023-09-19T05:46:15;15.90;99.90
6666;DHT22;3369;49.906;8.598;2023-09-19T05:48:42;15.90;99.90
6666;DHT22;3369;49.906;8.598;2023-09-19T05:51:09;15.90;99.90
6666;DHT22;3369;49.906;8.598;2023-09-19T05:53:35;15.80;99.90
6666;DHT22;3369;49.906;8.598;2023-09-19T05:56:00;15.90;99.90
6666;DHT22;3369;49.906;8.598;2023-09-19T05:58:26;15.90;99.90
6666;DHT22;3369;49.906;8.598;2023-09-19T06:00:52;15.90;99.90
6666;DHT22;3369;49.906;8.598;2023-09-19T06:03:18;15.90;99.90
6666;DHT22;3369;49.906;8.598;2023-09-19T06:05:44;15.90;99.90
6666;DHT22;3369;49.906;8.598;2023-09-19T06:08:11;15.90;99.90
6666;DHT22;3369;49.906;8.598;2023-09-19T06:10:37;15.90;99.90
6666;DHT22;3369;49.906;8.598;2023-09-19T06:13:03;16.00;99.90
6666;DHT22;3369;49.906;8.598;2023-09-19T06:15:35;16.00;99.90
6666;DHT22;3369;49.906;8.598;2023-09-19T06:18:01;16.00;99.90
6666;DHT22;3369;49.906;8.598;2023-09-19T06:20:28;16.00;99.90
6666;DHT22;3369;49.906;8.598;2023-09-19T06:22:54;16.10;99.90
6666;DHT22;3369;49.906;8.598;2023-09-19T06:25:20;16.10;99.90
6666;DHT22;3369;49.906;8.598;2023-09-19T06:27:46;16.10;99.90
6666;DHT22;3369;49.906;8.598;2023-09-19T06:30:12;16.20;99.90
6666;DHT22;3369;49.906;8.598;2023-09-19T06:32:39;16.20;99.90
6666;DHT22;3369;49.906;8.598;2023-09-19T06:35:07;16.20;99.90
6666;DHT22;3369;49.906;8.598;2023-09-19T06:37:34;16.20;99.90
6666;DHT22;3369;49.906;8.598;2023-09-19T06:40:10;16.20;99.90
6666;DHT22;3369;49.906;8.598;2023-09-19T06:43:00;16.30;99.90
6666;DHT22;3369;49.906;8.598;2023-09-19T06:45:27;16.40;99.90
6666;DHT22;3369;49.906;8.598;2023-09-19T06:47:53;16.40;99.90
6666;DHT22;3369;49.906;8.598;2023-09-19T06:50:23;16.40;99.90
6666;DHT22;3369;49.906;8.598;2023-09-19T06:52:51;16.40;99.90
6666;DHT22;3369;49.906;8.598;2023-09-19T06:55:17;16.40;99.90
6666;DHT22;3369;49.906;8.598;2023-09-19T06:57:48;16.40;99.90
6666;DHT22;3369;49.906;8.598;2023-09-19T07:00:15;16.50;99.90
6666;DHT22;3369;49.906;8.598;2023-09-19T07:02:53;16.50;99.90
6666;DHT22;3369;49.906;8.598;2023-09-19T07:05:19;16.50;99.90
6666;DHT22;3369;49.906;8.598;2023-09-19T07:07:45;16.50;99.90
6666;DHT22;3369;49.906;8.598;2023-09-19T07:10:11;16.50;99.90
6666;DHT22;3369;49.906;8.598;2023-09-19T07:12:38;16.50;99.90
6666;DHT22;3369;49.906;8.598;2023-09-19T07:15:06;16.60;99.90
6666;DHT22;3369;49.906;8.598;2023-09-19T07:17:31;16.60;99.90
6666;DHT22;3369;49.906;8.598;2023-09-19T07:19:58;16.70;99.90
6666;DHT22;3369;49.906;8.598;2023-09-19T07:22:25;16.70;99.90
6666;DHT22;3369;49.906;8.598;2023-09-19T07:24:51;16.70;99.90
6666;DHT22;3369;49.906;8.598;2023-09-19T07:27:24;16.70;99.90
6666;DHT22;3369;49.906;8.598;2023-09-19T07:29:54;16.70;99.90
6666;DHT22;3369;49.906;8.598;2023-09-19T07:32:20;16.80;99.90
6666;DHT22;3369;49.906;8.598;2023-09-19T07:34:46;16.80;99.90
6666;DHT22;3369;49.906;8.598;2023-09-19T07:37:13;16.90;99.90
6666;DHT22;3369;49.906;8.598;2023-09-19T07:39:41;16.90;99.90
6666;DHT22;3369;49.906;8.598;2023-09-19T07:42:19;16.90;99.90
6666;DHT22;3369;49.906;8.598;2023-09-19T07:44:48;16.90;99.90
6666;DHT22;3369;49.906;8.598;2023-09-19T07:47:16;17.00;99.90
6666;DHT22;3369;49.906;8.598;2023-09-19T07:49:48;17.00;99.90
6666;DHT22;3369;49.906;8.598;2023-09-19T07:52:19;17.10;99.90
6666;DHT22;3369;49.906;8.598;2023-09-19T07:54:50;17.10;99.90
6666;DHT22;3369;49.906;8.598;2023-09-19T07:57:23;17.20;99.90
6666;DHT22;3369;49.906;8.598;2023-09-19T07:59:48;17.20;99.90
6666;DHT22;3369;49.906;8.598;2023-09-19T08:02:14;17.20;99.90
6666;DHT22;3369;49.906;8.598;2023-09-19T08:04:44;17.30;99.90
6666;DHT22;3369;49.906;8.598;2023-09-19T08:07:12;17.30;99.90
6666;DHT22;3369;49.906;8.598;2023-09-19T08:09:38;17.30;99.90
6666;DHT22;3369;49.906;8.598;2023-09-19T08:12:05;17.30;99.90
6666;DHT22;3369;49.906;8.598;2023-09-19T08:14:33;17.30;99.90
6666;DHT22;3369;49.906;8.598;2023-09-19T08:16:59;17.30;99.90
6666;DHT22;3369;49.906;8.598;2023-09-19T08:19:26;17.40;99.90
6666;DHT22;3369;49.906;8.598;2023-09-19T08:21:58;17.40;99.90
6666;DHT22;3369;49.906;8.598;2023-09-19T08:24:25;17.30;99.90
6666;DHT22;3369;49.906;8.598;2023-09-19T08:26:54;17.40;99.90
6666;DHT22;3369;49.906;8.598;2023-09-19T08:29:20;17.40;99.90
6666;DHT22;3369;49.906;8.598;2023-09-19T08:31:46;17.40;99.90
6666;DHT22;3369;49.906;8.598;2023-09-19T08:34:15;17.40;99.90
6666;DHT22;3369;49.906;8.598;2023-09-19T08:36:41;17.40;99.90
6666;DHT22;3369;49.906;8.598;2023-09-19T08:39:08;17.50;99.90
6666;DHT22;3369;49.906;8.598;2023-09-19T08:41:34;17.50;99.90
6666;DHT22;3369;49.906;8.598;2023-09-19T08:44:00;17.70;99.90
6666;DHT22;3369;49.906;8.598;2023-09-19T08:46:30;17.70;99.90
6666;DHT22;3369;49.906;8.598;2023-09-19T08:49:08;17.80;99.90
6666;DHT22;3369;49.906;8.598;2023-09-19T08:51:41;17.90;99.90
6666;DHT22;3369;49.906;8.598;2023-09-19T08:54:25;18.00;99.90
6666;DHT22;3369;49.906;8.598;2023-09-19T08:56:55;17.90;99.90
6666;DHT22;3369;49.906;8.598;2023-09-19T08:59:25;17.90;99.90
6666;DHT22;3369;49.906;8.598;2023-09-19T09:01:57;17.90;99.90
6666;DHT22;3369;49.906;8.598;2023-09-19T09:04:28;17.90;99.90
6666;DHT22;3369;49.906;8.598;2023-09-19T09:09:57;18.00;99.90
6666;DHT22;3369;49.906;8.598;2023-09-19T09:12:33;18.10;99.80
6666;DHT22;3369;49.906;8.598;2023-09-19T09:15:04;18.20;99.80
6666;DHT22;3369;49.906;8.598;2023-09-19T09:17:30;18.30;99.70
6666;DHT22;3369;49.906;8.598;2023-09-19T09:19:57;18.30;99.50
6666;DHT22;3369;49.906;8.598;2023-09-19T09:22:24;18.40;99.30
6666;DHT22;3369;49.906;8.598;2023-09-19T09:24:54;18.40;99.40
6666;DHT22;3369;49.906;8.598;2023-09-19T09:27:23;18.50;99.50
6666;DHT22;3369;49.906;8.598;2023-09-19T09:30:01;18.50;99.20
6666;DHT22;3369;49.906;8.598;2023-09-19T09:32:35;18.50;99.10
6666;DHT22;3369;49.906;8.598;2023-09-19T09:35:13;18.60;98.80
6666;DHT22;3369;49.906;8.598;2023-09-19T09:38:08;18.60;99.10
6666;DHT22;3369;49.906;8.598;2023-09-19T09:40:48;18.60;98.90
6666;DHT22;3369;49.906;8.598;2023-09-19T09:43:41;18.60;98.60
6666;DHT22;3369;49.906;8.598;2023-09-19T09:46:32;18.70;98.80
6666;DHT22;3369;49.906;8.598;2023-09-19T09:49:29;18.80;98.40
6666;DHT22;3369;49.906;8.598;2023-09-19T09:52:20;18.90;98.50
6666;DHT22;3369;49.906;8.598;2023-09-19T09:55:00;19.00;98.00
6666;DHT22;3369;49.906;8.598;2023-09-19T09:57:37;19.10;98.20
6666;DHT22;3369;49.906;8.598;2023-09-19T10:00:07;19.20;97.80
6666;DHT22;3369;49.906;8.598;2023-09-19T10:02:42;19.20;98.00
6666;DHT22;3369;49.906;8.598;2023-09-19T10:05:19;19.20;97.60
6666;DHT22;3369;49.906;8.598;2023-09-19T10:07:56;19.20;97.30
6666;DHT22;3369;49.906;8.598;2023-09-19T10:10:38;19.10;97.40
6666;DHT22;3369;49.906;8.598;2023-09-19T10:13:27;19.20;97.00
6666;DHT22;3369;49.906;8.598;2023-09-19T10:15:55;19.10;96.60
6666;DHT22;3369;49.906;8.598;2023-09-19T10:18:26;19.20;97.10
6666;DHT22;3369;49.906;8.598;2023-09-19T10:20:53;19.30;96.40
6666;DHT22;3369;49.906;8.598;2023-09-19T10:23:21;19.30;96.30
6666;DHT22;3369;49.906;8.598;2023-09-19T10:25:59;19.30;96.10
6666;DHT22;3369;49.906;8.598;2023-09-19T10:28:28;19.40;96.20
6666;DHT22;3369;49.906;8.598;2023-09-19T10:31:20;19.30;95.80
6666;DHT22;3369;49.906;8.598;2023-09-19T10:33:58;19.30;95.60
6666;DHT22;3369;49.906;8.598;2023-09-19T10:36:24;19.20;95.50
6666;DHT22;3369;49.906;8.598;2023-09-19T10:39:12;19.20;95.80
6666;DHT22;3369;49.906;8.598;2023-09-19T10:41:41;19.30;96.50
6666;DHT22;3369;49.906;8.598;2023-09-19T10:49:58;19.30;96.10
6666;DHT22;3369;49.906;8.598;2023-09-19T10:52:28;19.40;95.80
6666;DHT22;3369;49.906;8.598;2023-09-19T10:55:08;19.50;96.00
6666;DHT22;3369;49.906;8.598;2023-09-19T10:57:50;19.60;95.70
6666;DHT22;3369;49.906;8.598;2023-09-19T11:00:17;19.70;95.50
6666;DHT22;3369;49.906;8.598;2023-09-19T11:06:17;20.00;95.10
6666;DHT22;3369;49.906;8.598;2023-09-19T11:09:03;20.10;95.20
6666;DHT22;3369;49.906;8.598;2023-09-19T11:26:49;19.40;95.20
6666;DHT22;3369;49.906;8.598;2023-09-19T11:29:27;19.40;95.10
6666;DHT22;3369;49.906;8.598;2023-09-19T11:48:23;20.40;93.60
6666;DHT22;3369;49.906;8.598;2023-09-19T11:51:43;20.50;93.70
6666;DHT22;3369;49.906;8.598;2023-09-19T11:54:15;20.50;92.30
6666;DHT22;3369;49.906;8.598;2023-09-19T11:56:49;20.50;92.30
6666;DHT22;3369;49.906;8.598;2023-09-19T12:02:46;20.60;92.00
6666;DHT22;3369;49.906;8.598;2023-09-19T12:05:34;20.60;91.80
6666;DHT22;3369;49.906;8.598;2023-09-19T12:11:31;20.60;92.40
6666;DHT22;3369;49.906;8.598;2023-09-19T12:17:24;20.60;91.80
6666;DHT22;3369;49.906;8.598;2023-09-19T12:20:09;20.70;92.00
6666;DHT22;3369;49.906;8.598;2023-09-19T12:22:58;20.80;91.60
6666;DHT22;3369;49.906;8.598;2023-09-19T12:29:28;21.00;91.40
6666;DHT22;3369;49.906;8.598;2023-09-19T12:31:57;21.00;91.50
6666;DHT22;3369;49.906;8.598;2023-09-19T12:34:30;21.00;90.60
6666;DHT22;3369;49.906;8.598;2023-09-19T12:40:12;21.10;91.10
6666;DHT22;3369;49.906;8.598;2023-09-19T12:43:09;21.20;90.10
6666;DHT22;3369;49.906;8.598;2023-09-19T12:45:59;21.30;90.30
6666;DHT22;3369;49.906;8.598;2023-09-19T12:52:23;21.40;88.30
6666;DHT22;3369;49.906;8.598;2023-09-19T13:05:19;21.60;88.60
6666;DHT22;3369;49.906;8.598;2023-09-19T13:11:19;21.80;88.50
6666;DHT22;3369;49.906;8.598;2023-09-19T13:20:27;21.80;88.60
6666;DHT22;3369;49.906;8.598;2023-09-19T13:23:01;21.80;87.90
6666;DHT22;3369;49.906;8.598;2023-09-19T13:25:43;21.70;87.50
6666;DHT22;3369;49.906;8.598;2023-09-19T13:28:14;21.70;87.60
6666;DHT22;3369;49.906;8.598;2023-09-19T13:30:49;21.70;86.90
6666;DHT22;3369;49.906;8.598;2023-09-19T13:33:42;21.70;87.00
6666;DHT22;3369;49.906;8.598;2023-09-19T13:36:13;21.60;87.00
6666;DHT22;3369;49.906;8.598;2023-09-19T13:38:53;21.60;86.60
6666;DHT22;3369;49.906;8.598;2023-09-19T13:41:57;21.60;87.30
6666;DHT22;3369;49.906;8.598;2023-09-19T13:44:46;21.50;87.50
6666;DHT22;3369;49.906;8.598;2023-09-19T13:47:13;21.50;87.20
6666;DHT22;3369;49.906;8.598;2023-09-19T13:49:52;21.50;88.00
6666;DHT22;3369;49.906;8.598;2023-09-19T13:52:22;21.50;87.80
6666;DHT22;3369;49.906;8.598;2023-09-19T13:55:11;21.50;88.10
6666;DHT22;3369;49.906;8.598;2023-09-19T13:57:40;21.50;88.40
6666;DHT22;3369;49.906;8.598;2023-09-19T14:00:07;21.40;88.40
6666;DHT22;3369;49.906;8.598;2023-09-19T14:02:35;21.40;88.40
6666;DHT22;3369;49.906;8.598;2023-09-19T14:05:01;21.40;88.10
6666;DHT22;3369;49.906;8.598;2023-09-19T14:07:46;21.30;87.60
6666;DHT22;3369;49.906;8.598;2023-09-19T14:10:13;21.30;88.40
6666;DHT22;3369;49.906;8.598;2023-09-19T14:12:44;21.20;89.40
6666;DHT22;3369;49.906;8.598;2023-09-19T14:15:25;21.20;90.00
6666;DHT22;3369;49.906;8.598;2023-09-19T14:18:22;21.20;90.00
6666;DHT22;3369;49.906;8.598;2023-09-19T14:20:48;21.20;90.20
6666;DHT22;3369;49.906;8.598;2023-09-19T14:23:16;21.20;90.20
6666;DHT22;3369;49.906;8.598;2023-09-19T14:25:44;21.20;90.20
6666;DHT22;3369;49.906;8.598;2023-09-19T14:28:11;21.20;90.10
6666;DHT22;3369;49.906;8.598;2023-09-19T14:30:38;21.20;90.20
6666;DHT22;3369;49.906;8.598;2023-09-19T14:33:06;21.20;90.10
6666;DHT22;3369;49.906;8.598;2023-09-19T14:35:37;21.10;90.20
6666;DHT22;3369;49.906;8.598;2023-09-19T14:38:02;21.00;90.40
6666;DHT22;3369;49.906;8.598;2023-09-19T14:40:28;21.00;90.70
6666;DHT22;3369;49.906;8.598;2023-09-19T14:42:54;20.90;90.80
6666;DHT22;3369;49.906;8.598;2023-09-19T14:45:20;20.90;90.80
6666;DHT22;3369;49.906;8.598;2023-09-19T14:47:46;20.90;90.90
6666;DHT22;3369;49.906;8.598;2023-09-19T14:50:13;20.90;91.00
6666;DHT22;3369;49.906;8.598;2023-09-19T14:52:45;21.00;91.20
6666;DHT22;3369;49.906;8.598;2023-09-19T14:55:18;21.00;91.00
6666;DHT22;3369;49.906;8.598;2023-09-19T14:58:11;21.00;90.90
6666;DHT22;3369;49.906;8.598;2023-09-19T15:01:06;21.00;90.80
6666;DHT22;3369;49.906;8.598;2023-09-19T15:03:43;21.00;90.90
6666;DHT22;3369;49.906;8.598;2023-09-19T15:06:15;21.00;91.10
6666;DHT22;3369;49.906;8.598;2023-09-19T15:11:38;21.10;91.10
6666;DHT22;3369;49.906;8.598;2023-09-19T15:20:52;21.30;91.30
6666;DHT22;3369;49.906;8.598;2023-09-19T15:23:44;21.30;91.20
6666;DHT22;3369;49.906;8.598;2023-09-19T15:26:30;21.40;91.30
6666;DHT22;3369;49.906;8.598;2023-09-19T15:39:37;21.40;91.10
6666;DHT22;3369;49.906;8.598;2023-09-19T15:42:18;21.40;91.30
6666;DHT22;3369;49.906;8.598;2023-09-19T15:44:54;21.50;91.50
6666;DHT22;3369;49.906;8.598;2023-09-19T15:47:22;21.50;91.60
6666;DHT22;3369;49.906;8.598;2023-09-19T15:50:15;21.50;91.50
6666;DHT22;3369;49.906;8.598;2023-09-19T15:52:45;21.50;91.20
6666;DHT22;3369;49.906;8.598;2023-09-19T15:55:44;21.50;90.80
6666;DHT22;3369;49.906;8.598;2023-09-19T16:04:34;21.40;91.10
6666;DHT22;3369;49.906;8.598;2023-09-19T16:07:08;21.40;91.20
6666;DHT22;3369;49.906;8.598;2023-09-19T16:12:59;21.40;91.30
6666;DHT22;3369;49.906;8.598;2023-09-19T16:15:27;21.40;91.30
6666;DHT22;3369;49.906;8.598;2023-09-19T16:18:18;21.30;91.40
6666;DHT22;3369;49.906;8.598;2023-09-19T16:20:51;21.30;91.70
6666;DHT22;3369;49.906;8.598;2023-09-19T16:23:19;21.20;91.80
6666;DHT22;3369;49.906;8.598;2023-09-19T16:26:23;21.20;92.00
6666;DHT22;3369;49.906;8.598;2023-09-19T16:29:03;21.10;92.10
6666;DHT22;3369;49.906;8.598;2023-09-19T16:31:51;21.00;92.20
6666;DHT22;3369;49.906;8.598;2023-09-19T16:34:28;21.00;92.30
6666;DHT22;3369;49.906;8.598;2023-09-19T16:37:00;21.00;92.50
6666;DHT22;3369;49.906;8.598;2023-09-19T16:39:26;20.90;92.70
6666;DHT22;3369;49.906;8.598;2023-09-19T16:41:53;20.90;92.80
6666;DHT22;3369;49.906;8.598;2023-09-19T16:47:42;20.80;93.20
6666;DHT22;3369;49.906;8.598;2023-09-19T16:50:17;20.80;93.40
6666;DHT22;3369;49.906;8.598;2023-09-19T16:52:43;20.70;93.30
6666;DHT22;3369;49.906;8.598;2023-09-19T16:55:27;20.60;93.30
6666;DHT22;3369;49.906;8.598;2023-09-19T16:58:30;20.60;93.40
6666;DHT22;3369;49.906;8.598;2023-09-19T17:01:07;20.60;93.50
6666;DHT22;3369;49.906;8.598;2023-09-19T17:06:28;20.50;93.60
6666;DHT22;3369;49.906;8.598;2023-09-19T17:08:57;20.50;93.70
6666;DHT22;3369;49.906;8.598;2023-09-19T17:11:27;20.40;93.70
6666;DHT22;3369;49.906;8.598;2023-09-19T17:13:52;20.40;93.80
6666;DHT22;3369;49.906;8.598;2023-09-19T17:16:34;20.30;93.70
6666;DHT22;3369;49.906;8.598;2023-09-19T17:19:40;20.30;93.70
6666;DHT22;3369;49.906;8.598;2023-09-19T17:22:06;20.20;93.80
6666;DHT22;3369;49.906;8.598;2023-09-19T17:24:38;20.20;93.80
6666;DHT22;3369;49.906;8.598;2023-09-19T17:27:24;20.10;93.90
6666;DHT22;3369;49.906;8.598;2023-09-19T17:32:54;20.10;94.10
6666;DHT22;3369;49.906;8.598;2023-09-19T17:35:27;20.10;94.20
6666;DHT22;3369;49.906;8.598;2023-09-19T17:38:04;20.00;94.20
6666;DHT22;3369;49.906;8.598;2023-09-19T17:40:47;19.90;94.30
6666;DHT22;3369;49.906;8.598;2023-09-19T17:43:15;19.90;94.20
6666;DHT22;3369;49.906;8.598;2023-09-19T17:45:46;19.90;94.20
6666;DHT22;3369;49.906;8.598;2023-09-19T17:48:15;19.90;94.10
6666;DHT22;3369;49.906;8.598;2023-09-19T17:50:41;19.90;93.90
6666;DHT22;3369;49.906;8.598;2023-09-19T17:53:27;19.80;93.80
6666;DHT22;3369;49.906;8.598;2023-09-19T17:55:52;19.80;93.70
6666;DHT22;3369;49.906;8.598;2023-09-19T17:58:24;19.80;93.80
6666;DHT22;3369;49.906;8.598;2023-09-19T18:01:28;19.80;93.80
6666;DHT22;3369;49.906;8.598;2023-09-19T18:03:55;19.80;93.90
6666;DHT22;3369;49.906;8.598;2023-09-19T18:06:25;19.80;93.90
6666;DHT22;3369;49.906;8.598;2023-09-19T18:08:51;19.70;93.90
6666;DHT22;3369;49.906;8.598;2023-09-19T18:11:18;19.70;94.00
6666;DHT22;3369;49.906;8.598;2023-09-19T18:13:49;19.70;94.00
6666;DHT22;3369;49.906;8.598;2023-09-19T18:16:23;19.60;94.10
6666;DHT22;3369;49.906;8.598;2023-09-19T18:19:08;19.60;94.20
6666;DHT22;3369;49.906;8.598;2023-09-19T18:21:34;19.50;94.20
6666;DHT22;3369;49.906;8.598;2023-09-19T18:24:01;19.50;94.30
6666;DHT22;3369;49.906;8.598;2023-09-19T18:26:34;19.50;94.40
6666;DHT22;3369;49.906;8.598;2023-09-19T18:29:03;19.40;94.40
6666;DHT22;3369;49.906;8.598;2023-09-19T18:31:31;19.40;94.50
6666;DHT22;3369;49.906;8.598;2023-09-19T18:34:01;19.30;94.50
6666;DHT22;3369;49.906;8.598;2023-09-19T18:36:27;19.30;94.60
6666;DHT22;3369;49.906;8.598;2023-09-19T18:38:57;19.20;94.60
6666;DHT22;3369;49.906;8.598;2023-09-19T18:41:24;19.20;94.70
6666;DHT22;3369;49.906;8.598;2023-09-19T18:43:52;19.20;94.70
6666;DHT22;3369;49.906;8.598;2023-09-19T18:46:18;19.20;94.80